Wetterdaten: Woche 01.12.14 - 07.12.14 (KW49)
Datum Zeit Temp. A. Feuchte A. Luftdruck Regen Wind Richtung Sonnenschein ET UV Solar Taupunkt Windchill Windben
01.12.2014 00:00 1,4 C 93 % 1012,2 hPa 0,0 l/m 8,2 km/h (2 Bft) O 0,00 h 0,000 mm 0,0 UV-I 0 W/m 0,4 C -1,0 C 16,1 km/h (3 Bft)
01.12.2014 01:00 1,4 C 92 % 1011,7 hPa 0,0 l/m 8,7 km/h (2 Bft) O 0,00 h 0,000 mm 0,0 UV-I 0 W/m 0,3 C -1,1 C 16,8 km/h (3 Bft)
01.12.2014 02:00 1,5 C 92 % 1011,4 hPa 0,0 l/m 7,9 km/h (2 Bft) O 0,00 h 0,000 mm 0,0 UV-I 0 W/m 0,4 C -0,5 C 15,6 km/h (3 Bft)
01.12.2014 03:00 1,6 C 93 % 1011,3 hPa 0,0 l/m 5,8 km/h (2 Bft) O 0,00 h 0,000 mm 0,0 UV-I 0 W/m 0,6 C 0,7 C 11,6 km/h (2 Bft)
01.12.2014 04:00 1,4 C 94 % 1010,9 hPa 0,0 l/m 8,0 km/h (2 Bft) O-NO 0,00 h 0,000 mm 0,0 UV-I 0 W/m 0,5 C -0,8 C 15,6 km/h (3 Bft)
01.12.2014 05:00 1,2 C 94 % 1010,5 hPa 0,0 l/m 14,7 km/h (3 Bft) O-NO 0,00 h 0,000 mm 0,0 UV-I 0 W/m 0,4 C -5,0 C 24,0 km/h (4 Bft)
01.12.2014 06:00 1,1 C 94 % 1010,3 hPa 0,0 l/m 15,8 km/h (3 Bft) O-NO 0,00 h 0,000 mm 0,0 UV-I 0 W/m 0,2 C -6,0 C 24,4 km/h (4 Bft)
01.12.2014 07:00 0,9 C 94 % 1010,4 hPa 0,0 l/m 15,2 km/h (3 Bft) O-NO 0,00 h 0,000 mm 0,0 UV-I 0 W/m -0,0 C -5,9 C 23,0 km/h (4 Bft)
01.12.2014 08:00 0,7 C 94 % 1010,7 hPa 0,0 l/m 15,1 km/h (3 Bft) O-NO 0,00 h 0,000 mm 0,0 UV-I 6 W/m -0,1 C -6,1 C 24,3 km/h (4 Bft)
01.12.2014 09:00 0,6 C 94 % 1010,9 hPa 0,0 l/m 16,0 km/h (3 Bft) O-NO 0,00 h 0,000 mm 0,0 UV-I 9 W/m -0,2 C -6,6 C 25,4 km/h (4 Bft)
01.12.2014 10:00 0,7 C 94 % 1010,8 hPa 0,0 l/m 14,6 km/h (3 Bft) O 0,00 h 0,000 mm 0,0 UV-I 31 W/m -0,2 C -5,7 C 24,2 km/h (4 Bft)
01.12.2014 11:00 0,6 C 94 % 1010,6 hPa 0,0 l/m 12,1 km/h (2 Bft) O-NO 0,00 h 0,025 mm 0,0 UV-I 21 W/m -0,3 C -4,2 C 21,9 km/h (4 Bft)
01.12.2014 12:00 0,6 C 94 % 1010,2 hPa 0,0 l/m 12,8 km/h (3 Bft) O-NO 0,02 h 0,025 mm 0,0 UV-I 36 W/m -0,3 C -4,8 C 21,5 km/h (4 Bft)
01.12.2014 13:00 0,5 C 94 % 1010,0 hPa 0,0 l/m 9,4 km/h (2 Bft) O-NO 0,00 h 0,025 mm 0,0 UV-I 19 W/m -0,3 C -2,6 C 18,1 km/h (3 Bft)
01.12.2014 14:00 0,4 C 93 % 1009,9 hPa 0,0 l/m 10,7 km/h (2 Bft) O-NO 0,00 h 0,000 mm 0,0 UV-I 10 W/m -0,6 C -3,4 C 18,7 km/h (3 Bft)
01.12.2014 15:00 0,4 C 94 % 1009,8 hPa 0,0 l/m 8,1 km/h (2 Bft) N-NO 0,00 h 0,000 mm 0,0 UV-I 5 W/m -0,5 C -1,9 C 15,8 km/h (3 Bft)
01.12.2014 16:00 0,3 C 93 % 1009,8 hPa 0,0 l/m 8,6 km/h (2 Bft) O-NO 0,00 h 0,000 mm 0,0 UV-I 0 W/m -0,7 C -2,3 C 15,6 km/h (3 Bft)
01.12.2014 17:00 0,6 C 92 % 1009,8 hPa 0,0 l/m 11,4 km/h (2 Bft) O-NO 0,00 h 0,000 mm 0,0 UV-I 0 W/m -0,6 C -3,7 C 19,3 km/h (3 Bft)
01.12.2014 18:00 0,5 C 93 % 1010,1 hPa 0,2 l/m 9,9 km/h (2 Bft) O-NO 0,00 h 0,000 mm 0,0 UV-I 0 W/m -0,5 C -2,7 C 16,8 km/h (3 Bft)
01.12.2014 19:00 0,7 C 94 % 1010,4 hPa 1,6 l/m 8,6 km/h (2 Bft) O-NO 0,00 h 0,000 mm 0,0 UV-I 0 W/m -0,1 C -1,7 C 14,8 km/h (3 Bft)
01.12.2014 20:00 0,7 C 95 % 1010,5 hPa 0,8 l/m 6,5 km/h (2 Bft) O-NO 0,00 h 0,000 mm 0,0 UV-I 0 W/m -0,1 C -0,6 C 12,5 km/h (2 Bft)
01.12.2014 21:00 0,6 C 95 % 1010,7 hPa 0,0 l/m 4,9 km/h (1 Bft) O-NO 0,00 h 0,000 mm 0,0 UV-I 0 W/m -0,1 C 0,1 C 10,4 km/h (2 Bft)
01.12.2014 22:00 0,7 C 95 % 1010,6 hPa 0,4 l/m 4,1 km/h (1 Bft) O-NO 0,00 h 0,000 mm 0,0 UV-I 0 W/m 0,0 C 0,3 C 8,6 km/h (2 Bft)
01.12.2014 23:00 0,8 C 95 % 1010,5 hPa 1,2 l/m 3,8 km/h (1 Bft) O-NO 0,00 h 0,000 mm 0,0 UV-I 0 W/m 0,1 C 0,4 C 8,4 km/h (2 Bft)
02.12.2014 00:00 0,9 C 95 % 1010,5 hPa 0,0 l/m 3,9 km/h (1 Bft) O-NO 0,00 h 0,000 mm 0,0 UV-I 0 W/m 0,2 C 0,6 C 8,6 km/h (2 Bft)
02.12.2014 01:00 0,9 C 95 % 1010,4 hPa 0,0 l/m 5,1 km/h (1 Bft) O-NO 0,00 h 0,000 mm 0,0 UV-I 0 W/m 0,2 C 0,4 C 10,6 km/h (2 Bft)
02.12.2014 02:00 0,9 C 95 % 1010,6 hPa 0,8 l/m 6,0 km/h (2 Bft) O-NO 0,00 h 0,000 mm 0,0 UV-I 0 W/m 0,2 C -0,1 C 11,7 km/h (2 Bft)
02.12.2014 03:00 0,7 C 95 % 1010,8 hPa 0,4 l/m 5,9 km/h (2 Bft) O-NO 0,00 h 0,000 mm 0,0 UV-I 0 W/m 0,0 C -0,4 C 11,7 km/h (2 Bft)
02.12.2014 04:00 0,7 C 96 % 1010,7 hPa 0,2 l/m 3,7 km/h (1 Bft) O-NO 0,00 h 0,000 mm 0,0 UV-I 0 W/m 0,1 C 0,5 C 8,6 km/h (2 Bft)
02.12.2014 05:00 0,8 C 96 % 1010,8 hPa 0,0 l/m 4,8 km/h (1 Bft) O-NO 0,00 h 0,000 mm 0,0 UV-I 0 W/m 0,2 C 0,4 C 9,5 km/h (2 Bft)
02.12.2014 06:00 0,8 C 96 % 1011,2 hPa 0,0 l/m 5,9 km/h (2 Bft) O-NO 0,00 h 0,000 mm 0,0 UV-I 0 W/m 0,2 C -0,0 C 12,1 km/h (2 Bft)
02.12.2014 07:00 0,7 C 96 % 1011,6 hPa 0,0 l/m 5,3 km/h (1 Bft) O-NO 0,00 h 0,000 mm 0,0 UV-I 0 W/m 0,2 C 0,2 C 10,9 km/h (2 Bft)
02.12.2014 08:00 0,8 C 96 % 1011,9 hPa 0,0 l/m 2,8 km/h (1 Bft) O-NO 0,00 h 0,000 mm 0,0 UV-I 8 W/m 0,2 C 0,7 C 6,5 km/h (2 Bft)
02.12.2014 09:00 0,9 C 95 % 1012,3 hPa 0,0 l/m 2,7 km/h (1 Bft) O-NO 0,00 h 0,000 mm 0,0 UV-I 16 W/m 0,3 C 0,8 C 6,1 km/h (2 Bft)
02.12.2014 10:00 1,2 C 95 % 1012,4 hPa 0,0 l/m 3,5 km/h (1 Bft) O-NO 0,33 h 0,000 mm 0,0 UV-I 47 W/m 0,5 C 1,1 C 8,0 km/h (2 Bft)
02.12.2014 11:00 1,1 C 94 % 1012,4 hPa 0,0 l/m 5,0 km/h (1 Bft) O-NO 0,18 h 0,025 mm 0,5 UV-I 37 W/m 0,3 C 0,8 C 10,0 km/h (2 Bft)
02.12.2014 12:00 1,2 C 94 % 1012,2 hPa 0,0 l/m 3,9 km/h (1 Bft) O-NO 0,37 h 0,025 mm 0,5 UV-I 51 W/m 0,4 C 0,9 C 8,8 km/h (2 Bft)
02.12.2014 13:00 1,3 C 93 % 1012,1 hPa 0,2 l/m 6,0 km/h (2 Bft) O-NO 0,52 h 0,025 mm 0,5 UV-I 51 W/m 0,3 C 0,2 C 11,4 km/h (2 Bft)
02.12.2014 14:00 1,0 C 93 % 1012,5 hPa 0,0 l/m 4,8 km/h (1 Bft) O-NO 0,00 h 0,025 mm 0,0 UV-I 14 W/m 0,1 C 0,4 C 9,3 km/h (2 Bft)
02.12.2014 15:00 0,7 C 94 % 1012,9 hPa 0,0 l/m 4,9 km/h (1 Bft) O-NO 0,00 h 0,000 mm 0,0 UV-I 5 W/m -0,2 C 0,5 C 10,0 km/h (2 Bft)
02.12.2014 16:00 0,2 C 94 % 1013,1 hPa 0,0 l/m 4,4 km/h (1 Bft) O-NO 0,00 h 0,002 mm 0,0 UV-I 0 W/m -0,6 C -0,3 C 9,1 km/h (2 Bft)
02.12.2014 17:00 0,1 C 94 % 1013,6 hPa 0,0 l/m 3,7 km/h (1 Bft) O-NO 0,00 h 0,000 mm 0,0 UV-I 0 W/m -0,7 C -0,1 C 8,0 km/h (2 Bft)
02.12.2014 18:00 0,1 C 94 % 1013,9 hPa 0,0 l/m 3,3 km/h (1 Bft) O-NO 0,00 h 0,000 mm 0,0 UV-I 0 W/m -0,8 C -0,1 C 6,7 km/h (2 Bft)
02.12.2014 19:00 -0,1 C 94 % 1014,1 hPa 0,0 l/m 2,5 km/h (1 Bft) NO 0,00 h 0,000 mm 0,0 UV-I 0 W/m -0,9 C -0,1 C 6,2 km/h (2 Bft)
02.12.2014 20:00 -0,1 C 94 % 1014,4 hPa 0,0 l/m 2,9 km/h (1 Bft) NO 0,00 h 0,000 mm 0,0 UV-I 0 W/m -1,0 C -0,2 C 6,6 km/h (2 Bft)
02.12.2014 21:00 -0,2 C 94 % 1014,7 hPa 0,0 l/m 1,8 km/h (1 Bft) NO 0,00 h 0,000 mm 0,0 UV-I 0 W/m -1,0 C -0,2 C 4,9 km/h (1 Bft)
02.12.2014 22:00 -0,2 C 94 % 1015,1 hPa 0,0 l/m 1,8 km/h (1 Bft) NO 0,00 h 0,000 mm 0,0 UV-I 0 W/m -1,0 C -0,2 C 5,3 km/h (1 Bft)
02.12.2014 23:00 -0,1 C 94 % 1015,5 hPa 0,0 l/m 1,8 km/h (1 Bft) O-NO 0,00 h 0,000 mm 0,0 UV-I 0 W/m -1,0 C -0,1 C 4,8 km/h (1 Bft)
03.12.2014 00:00 -0,1 C 94 % 1015,5 hPa 0,0 l/m 2,6 km/h (1 Bft) O-NO 0,00 h 0,000 mm 0,0 UV-I 0 W/m -0,9 C -0,1 C 6,6 km/h (2 Bft)
03.12.2014 01:00 -0,1 C 95 % 1015,6 hPa 0,0 l/m 3,6 km/h (1 Bft) O-NO 0,00 h 0,000 mm 0,0 UV-I 0 W/m -0,8 C -0,2 C 8,1 km/h (2 Bft)
03.12.2014 02:00 -0,1 C 96 % 1015,9 hPa 0,0 l/m 2,1 km/h (1 Bft) O-NO 0,00 h 0,000 mm 0,0 UV-I 0 W/m -0,7 C -0,2 C 5,2 km/h (1 Bft)
03.12.2014 03:00 -0,1 C 96 % 1016,1 hPa 0,0 l/m 1,5 km/h (1 Bft) NO 0,00 h 0,000 mm 0,0 UV-I 0 W/m -0,7 C -0,1 C 4,1 km/h (1 Bft)
03.12.2014 04:00 -0,1 C 96 % 1016,3 hPa 0,0 l/m 1,9 km/h (1 Bft) O-NO 0,00 h 0,000 mm 0,0 UV-I 0 W/m -0,7 C -0,1 C 5,4 km/h (2 Bft)
03.12.2014 05:00 -0,1 C 96 % 1016,6 hPa 0,0 l/m 1,5 km/h (1 Bft) O-NO 0,00 h 0,000 mm 0,0 UV-I 0 W/m -0,6 C -0,1 C 4,3 km/h (1 Bft)
03.12.2014 06:00 0,1 C 96 % 1016,6 hPa 0,0 l/m 2,2 km/h (1 Bft) O-NO 0,00 h 0,000 mm 0,0 UV-I 0 W/m -0,5 C 0,0 C 5,4 km/h (2 Bft)
03.12.2014 07:00 0,2 C 97 % 1017,0 hPa 0,0 l/m 1,9 km/h (1 Bft) O-NO 0,00 h 0,000 mm 0,0 UV-I 0 W/m -0,2 C 0,1 C 4,6 km/h (1 Bft)
03.12.2014 08:00 0,4 C 97 % 1017,7 hPa 0,0 l/m 1,8 km/h (1 Bft) O-NO 0,00 h 0,000 mm 0,0 UV-I 5 W/m -0,1 C 0,3 C 4,8 km/h (1 Bft)
03.12.2014 09:00 0,6 C 97 % 1018,1 hPa 0,0 l/m 1,8 km/h (1 Bft) O-NO 0,00 h 0,000 mm 0,0 UV-I 11 W/m 0,2 C 0,6 C 4,4 km/h (1 Bft)
03.12.2014 10:00 0,8 C 97 % 1018,6 hPa 0,0 l/m 1,8 km/h (1 Bft) N 0,00 h 0,000 mm 0,0 UV-I 25 W/m 0,4 C 0,8 C 4,7 km/h (1 Bft)
03.12.2014 11:00 1,2 C 96 % 1018,5 hPa 0,0 l/m 1,7 km/h (1 Bft) NO 0,00 h 0,000 mm 0,0 UV-I 31 W/m 0,7 C 1,2 C 4,9 km/h (1 Bft)
03.12.2014 12:00 1,3 C 96 % 1018,5 hPa 0,2 l/m 3,0 km/h (1 Bft) NO 0,00 h 0,000 mm 0,0 UV-I 27 W/m 0,7 C 1,3 C 6,0 km/h (2 Bft)
03.12.2014 13:00 1,3 C 96 % 1018,5 hPa 0,2 l/m 2,9 km/h (1 Bft) N-NO 0,00 h 0,000 mm 0,0 UV-I 23 W/m 0,7 C 1,3 C 6,0 km/h (2 Bft)
03.12.2014 14:00 1,3 C 96 % 1018,5 hPa 0,0 l/m 2,9 km/h (1 Bft) O-NO 0,00 h 0,000 mm 0,0 UV-I 17 W/m 0,8 C 1,2 C 6,7 km/h (2 Bft)
03.12.2014 15:00 1,4 C 95 % 1018,7 hPa 0,0 l/m 4,3 km/h (1 Bft) O-NO 0,00 h 0,000 mm 0,0 UV-I 9 W/m 0,7 C 1,1 C 8,7 km/h (2 Bft)
03.12.2014 16:00 1,4 C 96 % 1018,9 hPa 0,0 l/m 2,5 km/h (1 Bft) N 0,00 h 0,000 mm 0,0 UV-I 0 W/m 0,8 C 1,3 C 6,3 km/h (2 Bft)
03.12.2014 17:00 1,4 C 96 % 1018,9 hPa 0,0 l/m 4,2 km/h (1 Bft) O-NO 0,00 h 0,000 mm 0,0 UV-I 0 W/m 0,8 C 1,2 C 9,1 km/h (2 Bft)
03.12.2014 18:00 1,5 C 96 % 1019,0 hPa 0,0 l/m 4,2 km/h (1 Bft) O-NO 0,00 h 0,000 mm 0,0 UV-I 0 W/m 0,9 C 1,3 C 9,2 km/h (2 Bft)
03.12.2014 19:00 1,6 C 96 % 1019,1 hPa 0,0 l/m 5,6 km/h (2 Bft) O 0,00 h 0,000 mm 0,0 UV-I 0 W/m 1,0 C 1,1 C 11,6 km/h (2 Bft)
03.12.2014 20:00 1,7 C 96 % 1019,2 hPa 0,0 l/m 4,7 km/h (1 Bft) O-NO 0,00 h 0,000 mm 0,0 UV-I 0 W/m 1,1 C 1,2 C 9,2 km/h (2 Bft)
03.12.2014 21:00 1,7 C 96 % 1019,1 hPa 0,0 l/m 4,7 km/h (1 Bft) O-NO 0,00 h 0,000 mm 0,0 UV-I 0 W/m 1,2 C 1,4 C 9,3 km/h (2 Bft)
03.12.2014 22:00 1,8 C 96 % 1019,0 hPa 0,0 l/m 5,2 km/h (1 Bft) O-NO 0,00 h 0,000 mm 0,0 UV-I 0 W/m 1,2 C 1,4 C 9,8 km/h (2 Bft)
03.12.2014 23:00 1,9 C 96 % 1018,7 hPa 0,0 l/m 6,1 km/h (2 Bft) O-NO 0,00 h 0,000 mm 0,0 UV-I 0 W/m 1,3 C 1,1 C 11,5 km/h (2 Bft)
04.12.2014 00:00 1,9 C 96 % 1018,6 hPa 0,0 l/m 4,8 km/h (1 Bft) O-NO 0,00 h 0,000 mm 0,0 UV-I 0 W/m 1,3 C 1,5 C 9,6 km/h (2 Bft)
04.12.2014 01:00 2,0 C 95 % 1018,2 hPa 0,0 l/m 3,9 km/h (1 Bft) O-NO 0,00 h 0,000 mm 0,0 UV-I 0 W/m 1,4 C 1,8 C 8,2 km/h (2 Bft)
04.12.2014 02:00 2,1 C 96 % 1017,8 hPa 0,0 l/m 5,7 km/h (2 Bft) O-NO 0,00 h 0,000 mm 0,0 UV-I 0 W/m 1,5 C 1,3 C 11,5 km/h (2 Bft)
04.12.2014 03:00 2,1 C 96 % 1017,4 hPa 0,0 l/m 4,7 km/h (1 Bft) O-NO 0,00 h 0,000 mm 0,0 UV-I 0 W/m 1,6 C 1,8 C 10,1 km/h (2 Bft)
04.12.2014 04:00 2,2 C 96 % 1017,0 hPa 0,0 l/m 5,7 km/h (2 Bft) O 0,00 h 0,000 mm 0,0 UV-I 0 W/m 1,6 C 1,6 C 11,2 km/h (2 Bft)
04.12.2014 05:00 2,3 C 96 % 1016,8 hPa 0,0 l/m 6,4 km/h (2 Bft) O 0,00 h 0,000 mm 0,0 UV-I 0 W/m 1,7 C 1,2 C 12,0 km/h (2 Bft)
04.12.2014 06:00 2,4 C 96 % 1016,5 hPa 0,0 l/m 5,3 km/h (1 Bft) O 0,00 h 0,000 mm 0,0 UV-I 0 W/m 1,8 C 1,7 C 10,8 km/h (2 Bft)
04.12.2014 07:00 2,4 C 96 % 1016,3 hPa 0,0 l/m 6,7 km/h (2 Bft) O 0,00 h 0,000 mm 0,0 UV-I 0 W/m 1,9 C 1,2 C 12,6 km/h (3 Bft)
04.12.2014 08:00 2,6 C 96 % 1016,4 hPa 0,0 l/m 4,3 km/h (1 Bft) O-SO 0,00 h 0,000 mm 0,0 UV-I 6 W/m 2,1 C 2,2 C 9,1 km/h (2 Bft)
04.12.2014 09:00 2,8 C 96 % 1016,5 hPa 0,0 l/m 4,7 km/h (1 Bft) O-NO 0,00 h 0,000 mm 0,0 UV-I 15 W/m 2,2 C 2,5 C 10,2 km/h (2 Bft)
04.12.2014 10:00 3,1 C 96 % 1016,4 hPa 0,0 l/m 4,0 km/h (1 Bft) O-NO 0,00 h 0,000 mm 0,0 UV-I 27 W/m 2,5 C 2,6 C 8,3 km/h (2 Bft)
04.12.2014 11:00 3,3 C 96 % 1015,9 hPa 0,0 l/m 3,6 km/h (1 Bft) O 0,48 h 0,000 mm 0,0 UV-I 49 W/m 2,7 C 3,0 C 9,0 km/h (2 Bft)
04.12.2014 12:00 3,4 C 96 % 1015,5 hPa 0,0 l/m 3,7 km/h (1 Bft) O 0,07 h 0,025 mm 0,0 UV-I 34 W/m 2,8 C 3,2 C 8,5 km/h (2 Bft)
04.12.2014 13:00 3,6 C 96 % 1015,2 hPa 0,0 l/m 4,0 km/h (1 Bft) O 0,03 h 0,025 mm 0,0 UV-I 31 W/m 3,0 C 3,4 C 8,9 km/h (2 Bft)
04.12.2014 14:00 3,7 C 96 % 1015,2 hPa 0,0 l/m 6,2 km/h (2 Bft) O 0,00 h 0,025 mm 0,0 UV-I 23 W/m 3,2 C 2,7 C 12,9 km/h (3 Bft)
04.12.2014 15:00 3,7 C 96 % 1015,2 hPa 0,0 l/m 5,5 km/h (2 Bft) O 0,00 h 0,000 mm 0,0 UV-I 10 W/m 3,1 C 2,7 C 11,4 km/h (2 Bft)
04.12.2014 16:00 3,8 C 96 % 1015,2 hPa 0,0 l/m 5,6 km/h (2 Bft) O 0,00 h 0,000 mm 0,0 UV-I 0 W/m 3,3 C 3,3 C 11,4 km/h (2 Bft)
04.12.2014 17:00 4,0 C 95 % 1015,4 hPa 0,0 l/m 2,5 km/h (1 Bft) O 0,00 h 0,000 mm 0,0 UV-I 0 W/m 3,3 C 3,9 C 6,4 km/h (2 Bft)
04.12.2014 18:00 4,3 C 96 % 1015,5 hPa 0,0 l/m 1,8 km/h (1 Bft) SO 0,00 h 0,000 mm 0,0 UV-I 0 W/m 3,6 C 4,3 C 4,2 km/h (1 Bft)
04.12.2014 19:00 4,4 C 95 % 1015,5 hPa 0,0 l/m 2,3 km/h (1 Bft) SO 0,00 h 0,000 mm 0,0 UV-I 0 W/m 3,7 C 4,4 C 4,7 km/h (1 Bft)
04.12.2014 20:00 4,5 C 95 % 1015,9 hPa 0,0 l/m 6,1 km/h (2 Bft) SO 0,00 h 0,000 mm 0,0 UV-I 0 W/m 3,8 C 3,8 C 10,5 km/h (2 Bft)
04.12.2014 21:00 4,5 C 95 % 1016,1 hPa 0,0 l/m 4,8 km/h (1 Bft) SO 0,00 h 0,001 mm 0,0 UV-I 0 W/m 3,8 C 4,4 C 8,9 km/h (2 Bft)
04.12.2014 22:00 4,4 C 96 % 1016,1 hPa 0,0 l/m 4,3 km/h (1 Bft) O-SO 0,00 h 0,000 mm 0,0 UV-I 0 W/m 3,8 C 4,2 C 8,2 km/h (2 Bft)
04.12.2014 23:00 4,3 C 96 % 1016,2 hPa 0,0 l/m 2,2 km/h (1 Bft) SO 0,00 h 0,000 mm 0,0 UV-I 0 W/m 3,7 C 4,3 C 4,4 km/h (1 Bft)
05.12.2014 00:00 4,2 C 96 % 1016,3 hPa 0,0 l/m 3,1 km/h (1 Bft) SO 0,00 h 0,000 mm 0,0 UV-I 0 W/m 3,7 C 4,2 C 5,7 km/h (2 Bft)
05.12.2014 01:00 4,1 C 96 % 1016,3 hPa 0,0 l/m 0,5 km/h (0 Bft) S-SO 0,00 h 0,000 mm 0,0 UV-I 0 W/m 3,6 C 4,1 C 1,6 km/h (1 Bft)
05.12.2014 02:00 4,0 C 97 % 1016,6 hPa 0,0 l/m 0,5 km/h (0 Bft) S-SO 0,00 h 0,000 mm 0,0 UV-I 0 W/m 3,6 C 4,0 C 1,6 km/h (1 Bft)
05.12.2014 03:00 3,9 C 97 % 1016,7 hPa 0,0 l/m 0,0 km/h (0 Bft) N 0,00 h 0,000 mm 0,0 UV-I 0 W/m 3,5 C 3,9 C 0,1 km/h (0 Bft)
05.12.2014 04:00 3,9 C 97 % 1016,7 hPa 0,0 l/m 0,0 km/h (0 Bft) N 0,00 h 0,000 mm 0,0 UV-I 0 W/m 3,5 C 3,9 C 0,0 km/h (0 Bft)
05.12.2014 05:00 3,8 C 97 % 1016,8 hPa 0,0 l/m 0,0 km/h (0 Bft) N 0,00 h 0,000 mm 0,0 UV-I 0 W/m 3,4 C 3,8 C 0,0 km/h (0 Bft)
05.12.2014 06:00 3,8 C 97 % 1017,1 hPa 0,0 l/m 0,0 km/h (0 Bft) N 0,00 h 0,000 mm 0,0 UV-I 0 W/m 3,4 C 3,8 C 0,2 km/h (0 Bft)
05.12.2014 07:00 3,8 C 97 % 1017,5 hPa 0,0 l/m 0,1 km/h (0 Bft) N 0,00 h 0,000 mm 0,0 UV-I 0 W/m 3,4 C 3,8 C 0,9 km/h (0 Bft)
05.12.2014 08:00 3,7 C 97 % 1017,8 hPa 0,0 l/m 0,9 km/h (0 Bft) S 0,00 h 0,000 mm 0,0 UV-I 8 W/m 3,2 C 3,7 C 2,5 km/h (1 Bft)
05.12.2014 09:00 3,5 C 97 % 1018,0 hPa 0,0 l/m 1,6 km/h (1 Bft) W-SW 0,00 h 0,000 mm 0,0 UV-I 17 W/m 3,1 C 3,5 C 3,5 km/h (1 Bft)
05.12.2014 10:00 3,4 C 97 % 1018,3 hPa 0,0 l/m 1,6 km/h (1 Bft) SW 0,00 h 0,000 mm 0,0 UV-I 28 W/m 3,0 C 3,4 C 3,7 km/h (1 Bft)
05.12.2014 11:00 3,4 C 96 % 1018,3 hPa 0,0 l/m 2,3 km/h (1 Bft) W-SW 0,00 h 0,000 mm 0,0 UV-I 32 W/m 2,7 C 3,4 C 4,9 km/h (1 Bft)
05.12.2014 12:00 3,3 C 94 % 1018,0 hPa 0,0 l/m 2,6 km/h (1 Bft) W 0,00 h 0,025 mm 0,0 UV-I 32 W/m 2,5 C 3,3 C 4,7 km/h (1 Bft)
05.12.2014 13:00 3,2 C 94 % 1018,0 hPa 0,0 l/m 1,1 km/h (0 Bft) W-NW 0,00 h 0,025 mm 0,0 UV-I 23 W/m 2,3 C 3,2 C 2,6 km/h (1 Bft)
05.12.2014 14:00 3,1 C 94 % 1018,0 hPa 0,0 l/m 1,0 km/h (0 Bft) W 0,00 h 0,000 mm 0,0 UV-I 14 W/m 2,2 C 3,1 C 2,7 km/h (1 Bft)
05.12.2014 15:00 3,0 C 94 % 1018,0 hPa 0,0 l/m 1,3 km/h (1 Bft) W-SW 0,00 h 0,000 mm 0,0 UV-I 7 W/m 2,1 C 3,0 C 2,9 km/h (1 Bft)
05.12.2014 16:00 2,9 C 94 % 1018,2 hPa 0,0 l/m 0,1 km/h (0 Bft) N 0,00 h 0,000 mm 0,0 UV-I 0 W/m 2,0 C 2,9 C 0,7 km/h (0 Bft)
05.12.2014 17:00 2,9 C 95 % 1018,4 hPa 0,0 l/m 0,4 km/h (0 Bft) W-NW 0,00 h 0,000 mm 0,0 UV-I 0 W/m 2,1 C 2,9 C 1,7 km/h (1 Bft)
05.12.2014 18:00 2,9 C 95 % 1018,5 hPa 0,0 l/m 0,5 km/h (0 Bft) W-NW 0,00 h 0,000 mm 0,0 UV-I 0 W/m 2,2 C 2,9 C 1,4 km/h (1 Bft)
05.12.2014 19:00 2,8 C 95 % 1018,7 hPa 0,0 l/m 0,0 km/h (0 Bft) N 0,00 h 0,000 mm 0,0 UV-I 0 W/m 2,1 C 2,8 C 0,4 km/h (0 Bft)
05.12.2014 20:00 2,7 C 96 % 1018,9 hPa 0,0 l/m 0,2 km/h (0 Bft) W-NW 0,00 h 0,000 mm 0,0 UV-I 0 W/m 2,1 C 2,7 C 1,1 km/h (1 Bft)
05.12.2014 21:00 2,7 C 96 % 1019,0 hPa 0,0 l/m 0,6 km/h (0 Bft) W-NW 0,00 h 0,001 mm 0,0 UV-I 0 W/m 2,2 C 2,7 C 1,7 km/h (1 Bft)
05.12.2014 22:00 2,7 C 97 % 1019,1 hPa 0,0 l/m 0,5 km/h (0 Bft) W-NW 0,00 h 0,000 mm 0,0 UV-I 0 W/m 2,2 C 2,7 C 1,7 km/h (1 Bft)
05.12.2014 23:00 2,7 C 97 % 1019,2 hPa 0,0 l/m 0,4 km/h (0 Bft) N 0,00 h 0,000 mm 0,0 UV-I 0 W/m 2,3 C 2,7 C 1,1 km/h (1 Bft)
06.12.2014 00:00 2,7 C 97 % 1019,3 hPa 0,0 l/m 1,4 km/h (1 Bft) N 0,00 h 0,000 mm 0,0 UV-I 0 W/m 2,3 C 2,7 C 2,6 km/h (1 Bft)
06.12.2014 01:00 2,7 C 97 % 1019,4 hPa 0,0 l/m 0,3 km/h (0 Bft) NW 0,00 h 0,000 mm 0,0 UV-I 0 W/m 2,3 C 2,7 C 1,6 km/h (1 Bft)
06.12.2014 02:00 2,7 C 97 % 1019,7 hPa 0,0 l/m 0,2 km/h (0 Bft) N 0,00 h 0,000 mm 0,0 UV-I 0 W/m 2,3 C 2,7 C 0,8 km/h (0 Bft)
06.12.2014 03:00 2,7 C 97 % 1019,6 hPa 0,0 l/m 0,0 km/h (0 Bft) N 0,00 h 0,000 mm 0,0 UV-I 0 W/m 2,3 C 2,7 C 0,3 km/h (0 Bft)
06.12.2014 04:00 2,7 C 97 % 1019,5 hPa 0,0 l/m 0,4 km/h (0 Bft) N 0,00 h 0,000 mm 0,0 UV-I 0 W/m 2,3 C 2,7 C 1,2 km/h (1 Bft)
06.12.2014 05:00 2,8 C 97 % 1019,5 hPa 0,0 l/m 0,6 km/h (0 Bft) NW 0,00 h 0,000 mm 0,0 UV-I 0 W/m 2,3 C 2,8 C 1,9 km/h (1 Bft)
06.12.2014 06:00 2,8 C 97 % 1019,8 hPa 0,0 l/m 2,7 km/h (1 Bft) NW 0,00 h 0,000 mm 0,0 UV-I 0 W/m 2,4 C 2,8 C 4,9 km/h (1 Bft)
06.12.2014 07:00 2,8 C 97 % 1020,4 hPa 0,0 l/m 0,7 km/h (0 Bft) NW 0,00 h 0,000 mm 0,0 UV-I 0 W/m 2,4 C 2,8 C 2,1 km/h (1 Bft)
06.12.2014 08:00 2,9 C 97 % 1020,9 hPa 0,0 l/m 2,2 km/h (1 Bft) N-NW 0,00 h 0,000 mm 0,0 UV-I 5 W/m 2,5 C 2,9 C 4,5 km/h (1 Bft)
06.12.2014 09:00 2,9 C 97 % 1021,3 hPa 0,0 l/m 2,8 km/h (1 Bft) N-NW 0,00 h 0,000 mm 0,0 UV-I 13 W/m 2,5 C 2,9 C 5,3 km/h (1 Bft)
06.12.2014 10:00 3,1 C 97 % 1021,7 hPa 0,0 l/m 3,3 km/h (1 Bft) N 0,00 h 0,000 mm 0,0 UV-I 24 W/m 2,6 C 3,1 C 5,7 km/h (2 Bft)
06.12.2014 11:00 3,3 C 97 % 1021,5 hPa 0,0 l/m 2,3 km/h (1 Bft) N 0,75 h 0,000 mm 0,5 UV-I 63 W/m 2,8 C 3,3 C 4,7 km/h (1 Bft)
06.12.2014 12:00 3,7 C 95 % 1021,3 hPa 0,0 l/m 3,1 km/h (1 Bft) N 0,00 h 0,025 mm 0,0 UV-I 30 W/m 3,1 C 3,6 C 5,3 km/h (1 Bft)
06.12.2014 13:00 3,8 C 95 % 1021,4 hPa 0,0 l/m 1,5 km/h (1 Bft) N 0,00 h 0,000 mm 0,0 UV-I 25 W/m 3,1 C 3,8 C 3,3 km/h (1 Bft)
06.12.2014 14:00 3,9 C 94 % 1021,6 hPa 0,0 l/m 2,5 km/h (1 Bft) N 0,00 h 0,000 mm 0,0 UV-I 12 W/m 3,0 C 3,9 C 4,7 km/h (1 Bft)
06.12.2014 15:00 3,8 C 94 % 1021,7 hPa 0,0 l/m 5,6 km/h (2 Bft) N 0,00 h 0,000 mm 0,0 UV-I 6 W/m 2,9 C 3,1 C 9,1 km/h (2 Bft)
06.12.2014 16:00 3,3 C 94 % 1022,0 hPa 0,0 l/m 6,1 km/h (2 Bft) N 0,00 h 0,000 mm 0,0 UV-I 0 W/m 2,4 C 2,8 C 10,2 km/h (2 Bft)
06.12.2014 17:00 2,9 C 95 % 1022,2 hPa 0,0 l/m 7,8 km/h (2 Bft) N 0,00 h 0,000 mm 0,0 UV-I 0 W/m 2,1 C 1,4 C 12,4 km/h (2 Bft)
06.12.2014 18:00 2,7 C 95 % 1022,5 hPa 0,0 l/m 6,0 km/h (2 Bft) N 0,00 h 0,000 mm 0,0 UV-I 0 W/m 1,9 C 2,3 C 9,6 km/h (2 Bft)
06.12.2014 19:00 2,6 C 94 % 1022,7 hPa 0,0 l/m 6,9 km/h (2 Bft) N 0,00 h 0,000 mm 0,0 UV-I 0 W/m 1,7 C 1,7 C 10,6 km/h (2 Bft)
06.12.2014 20:00 2,6 C 94 % 1022,8 hPa 0,0 l/m 6,6 km/h (2 Bft) N 0,00 h 0,000 mm 0,0 UV-I 0 W/m 1,7 C 1,7 C 10,4 km/h (2 Bft)
06.12.2014 21:00 2,5 C 94 % 1023,1 hPa 0,0 l/m 5,5 km/h (2 Bft) N 0,00 h 0,000 mm 0,0 UV-I 0 W/m 1,6 C 2,1 C 8,6 km/h (2 Bft)
06.12.2014 22:00 2,4 C 94 % 1023,1 hPa 0,0 l/m 3,2 km/h (1 Bft) N 0,00 h 0,000 mm 0,0 UV-I 0 W/m 1,5 C 2,3 C 6,1 km/h (2 Bft)
06.12.2014 23:00 2,2 C 94 % 1023,1 hPa 0,0 l/m 2,2 km/h (1 Bft) N 0,00 h 0,000 mm 0,0 UV-I 0 W/m 1,3 C 2,2 C 4,3 km/h (1 Bft)
07.12.2014 00:00 1,8 C 94 % 1023,1 hPa 0,0 l/m 1,0 km/h (0 Bft) N 0,00 h 0,000 mm 0,0 UV-I 0 W/m 0,9 C 1,8 C 2,4 km/h (1 Bft)
07.12.2014 01:00 1,7 C 95 % 1022,8 hPa 0,0 l/m 0,9 km/h (0 Bft) N 0,00 h 0,000 mm 0,0 UV-I 0 W/m 1,0 C 1,7 C 2,4 km/h (1 Bft)
07.12.2014 02:00 1,8 C 95 % 1022,6 hPa 0,0 l/m 0,3 km/h (0 Bft) N 0,00 h 0,000 mm 0,0 UV-I 0 W/m 1,1 C 1,8 C 1,4 km/h (1 Bft)
07.12.2014 03:00 1,8 C 95 % 1022,2 hPa 0,0 l/m 0,9 km/h (0 Bft) N 0,00 h 0,000 mm 0,0 UV-I 0 W/m 1,1 C 1,8 C 2,3 km/h (1 Bft)
07.12.2014 04:00 1,8 C 95 % 1022,1 hPa 0,0 l/m 0,3 km/h (0 Bft) N 0,00 h 0,000 mm 0,0 UV-I 0 W/m 1,1 C 1,8 C 1,2 km/h (1 Bft)
07.12.2014 05:00 1,8 C 95 % 1022,0 hPa 0,0 l/m 0,4 km/h (0 Bft) N 0,00 h 0,000 mm 0,0 UV-I 0 W/m 1,1 C 1,8 C 1,0 km/h (0 Bft)
07.12.2014 06:00 1,8 C 95 % 1022,1 hPa 0,0 l/m 1,2 km/h (1 Bft) N 0,00 h 0,000 mm 0,0 UV-I 0 W/m 1,1 C 1,8 C 2,8 km/h (1 Bft)
07.12.2014 07:00 1,7 C 95 % 1022,2 hPa 0,0 l/m 0,8 km/h (0 Bft) N 0,00 h 0,000 mm 0,0 UV-I 0 W/m 1,0 C 1,7 C 1,8 km/h (1 Bft)
07.12.2014 08:00 1,7 C 96 % 1022,4 hPa 0,0 l/m 0,0 km/h (0 Bft) N 0,00 h 0,000 mm 0,0 UV-I 12 W/m 1,1 C 1,7 C 0,0 km/h (0 Bft)
07.12.2014 09:00 1,9 C 96 % 1022,3 hPa 0,0 l/m 0,1 km/h (0 Bft) N 0,00 h 0,000 mm 0,0 UV-I 36 W/m 1,4 C 1,9 C 0,6 km/h (0 Bft)
07.12.2014 10:00 2,3 C 96 % 1022,2 hPa 0,0 l/m 0,3 km/h (0 Bft) N 0,90 h 0,025 mm 0,0 UV-I 64 W/m 1,7 C 2,3 C 0,9 km/h (0 Bft)
07.12.2014 11:00 3,0 C 94 % 1021,8 hPa 0,0 l/m 0,1 km/h (0 Bft) N 1,00 h 0,025 mm 0,5 UV-I 79 W/m 2,1 C 3,0 C 0,9 km/h (0 Bft)
07.12.2014 12:00 3,4 C 92 % 1021,4 hPa 0,0 l/m 0,1 km/h (0 Bft) N 1,00 h 0,025 mm 0,0 UV-I 67 W/m 2,2 C 3,4 C 0,9 km/h (0 Bft)
07.12.2014 13:00 3,6 C 91 % 1020,9 hPa 0,0 l/m 1,3 km/h (1 Bft) N 0,42 h 0,025 mm 0,0 UV-I 49 W/m 2,3 C 3,6 C 3,2 km/h (1 Bft)
07.12.2014 14:00 3,5 C 92 % 1020,5 hPa 0,0 l/m 2,5 km/h (1 Bft) W-SW 0,00 h 0,025 mm 0,0 UV-I 31 W/m 2,3 C 3,5 C 4,7 km/h (1 Bft)
07.12.2014 15:00 3,4 C 92 % 1020,4 hPa 0,0 l/m 3,3 km/h (1 Bft) W-SW 0,00 h 0,025 mm 0,0 UV-I 16 W/m 2,2 C 3,4 C 6,3 km/h (2 Bft)
07.12.2014 16:00 3,1 C 92 % 1020,2 hPa 0,0 l/m 3,0 km/h (1 Bft) W-SW 0,00 h 0,000 mm 0,0 UV-I 0 W/m 2,0 C 3,1 C 5,4 km/h (2 Bft)
07.12.2014 17:00 2,8 C 94 % 1020,1 hPa 0,0 l/m 1,9 km/h (1 Bft) S-SW 0,00 h 0,000 mm 0,0 UV-I 0 W/m 1,9 C 2,8 C 4,7 km/h (1 Bft)
07.12.2014 18:00 2,7 C 94 % 1019,9 hPa 0,0 l/m 4,6 km/h (1 Bft) W-SW 0,00 h 0,000 mm 0,0 UV-I 0 W/m 1,8 C 2,5 C 7,9 km/h (2 Bft)
07.12.2014 19:00 2,6 C 93 % 1019,9 hPa 0,0 l/m 5,6 km/h (2 Bft) W-SW 0,00 h 0,000 mm 0,0 UV-I 0 W/m 1,6 C 2,1 C 9,5 km/h (2 Bft)
07.12.2014 20:00 2,3 C 93 % 1019,9 hPa 0,2 l/m 9,3 km/h (2 Bft) W-SW 0,00 h 0,000 mm 0,0 UV-I 0 W/m 1,2 C -0,3 C 14,6 km/h (3 Bft)
07.12.2014 21:00 2,0 C 90 % 1019,9 hPa 0,0 l/m 10,8 km/h (2 Bft) W-SW 0,00 h 0,002 mm 0,0 UV-I 0 W/m 0,5 C -1,7 C 16,5 km/h (3 Bft)
07.12.2014 22:00 1,7 C 87 % 1019,7 hPa 0,0 l/m 12,2 km/h (2 Bft) W-SW 0,00 h 0,000 mm 0,0 UV-I 0 W/m -0,2 C -3,0 C 19,8 km/h (3 Bft)
07.12.2014 23:00 1,5 C 86 % 1019,5 hPa 0,0 l/m 8,3 km/h (2 Bft) W-SW 0,00 h 0,025 mm 0,0 UV-I 0 W/m -0,6 C -0,4 C 13,5 km/h (3 Bft)
Min-Datum _ 02.12.14 07.12.14 01.12.14 - 01.12.14 - - - - - 02.12.14 01.12.14 01.12.14
_ Min-Zeit 21:37 22:56 16:08 - 00:06 - - - - - 21:37 09:38 00:06
Minimum _ -0,3 C 85 % 1009,5 hPa - 0,0 km/h (0 Bft) - - - - - -1,1 C -10,6 C 0,0 km/h (0 Bft)
Max-Datum _ 04.12.14 03.12.14 06.12.14 01.12.14 01.12.14 - 01.12.14 01.12.14 02.12.14 04.12.14 04.12.14 04.12.14 01.12.14
_ Max-Zeit 20:35 07:21 23:06 19:07 05:19 - 12:33 11:00 11:52 11:13 20:42 21:06 05:19
Maximum _ 4,6 C 97 % 1023,3 hPa 1,6 l/m 25,7 km/h
O-NO (4 Bft)
- 0,02 h 0,025 mm 0,5 UV-I 95 W/m 3,9 C 4,6 C 38,6 km/h
O-NO (6 Bft)
Durchschnitt _ 2,0 C 95 % 1016,8 hPa #6,4 l/m 4,1 km/h (1 Bft) N #6:04 h #0,506 mm 0,5 UV-I 25 W/m 1,3 C 1,3 C 7,9 km/h (2 Bft)